Time;durP1;ratioP1;P1;durP2;ratioP2;P2;SDS_P1;SDS_P2;PMS_P1;PMS_P2;Temp;Humidity;BMP_temperature;BMP_pressure;BME280_temperature;BME280_humidity;BME280_pressure;Samples;Min_cycle;Max_cycle;Signal;HPM_P1;HPM_P2
2021/04/27 00:00:44;;;;;;;8.43;7.38;;;256.70;2252.80;;;;;;5040985;28;20037;-80
2021/04/27 00:03:10;;;;;;;10.07;7.20;;;256.80;2252.80;;;;;;5054488;28;20025;-80
2021/04/27 00:05:36;;;;;;;13.13;7.65;;;256.80;2252.80;;;;;;5067595;28;20025;-80
2021/04/27 00:08:03;;;;;;;8.98;7.30;;;256.90;2252.80;;;;;;5045632;28;20471;-80
2021/04/27 00:10:28;;;;;;;12.02;8.02;;;256.80;2252.80;;;;;;5054289;28;20032;-80
2021/04/27 00:12:54;;;;;;;12.43;8.50;;;256.80;2252.80;;;;;;5055694;28;20021;-80
2021/04/27 00:15:23;;;;;;;12.20;7.75;;;256.80;2252.80;;;;;;5064275;28;20040;-80
2021/04/27 00:17:50;;;;;;;11.95;8.85;;;256.70;2252.80;;;;;;5049459;28;20026;-80
2021/04/27 00:20:20;;;;;;;11.02;8.38;;;256.80;2252.80;;;;;;5047342;28;20032;-79
2021/04/27 00:22:46;;;;;;;10.73;8.90;;;256.70;2252.80;;;;;;5054277;28;20017;-79
2021/04/27 00:25:13;;;;;;;11.18;8.85;;;256.60;2252.80;;;;;;5055029;28;20028;-79
2021/04/27 00:27:39;;;;;;;10.85;8.75;;;256.60;2252.80;;;;;;5054911;28;20025;-79
2021/04/27 00:30:07;;;;;;;13.20;9.15;;;256.60;2252.80;;;;;;5051001;28;20033;-80
2021/04/27 00:32:33;;;;;;;9.65;8.15;;;256.60;2252.80;;;;;;5050990;28;20049;-80
2021/04/27 00:34:58;;;;;;;12.25;8.40;;;256.60;2252.80;;;;;;5053752;28;20075;-80
2021/04/27 00:37:24;;;;;;;13.57;8.80;;;256.60;2252.80;;;;;;5056692;28;20101;-79
2021/04/27 00:39:50;;;;;;;12.32;8.77;;;256.50;2252.80;;;;;;5069831;28;20029;-79
2021/04/27 00:42:16;;;;;;;11.43;8.13;;;256.50;2252.80;;;;;;5054633;28;20029;-78
2021/04/27 00:44:42;;;;;;;13.00;9.45;;;256.50;2252.80;;;;;;5055222;28;20021;-79
2021/04/27 00:47:07;;;;;;;14.27;9.70;;;256.50;2252.80;;;;;;5054793;28;20104;-79
2021/04/27 00:49:33;;;;;;;13.52;10.52;;;256.50;2252.80;;;;;;5053213;28;20021;-79
2021/04/27 00:51:59;;;;;;;15.07;10.55;;;256.50;2252.80;;;;;;5066029;28;20025;-79
2021/04/27 00:54:25;;;;;;;12.80;9.23;;;256.50;2252.80;;;;;;5054487;28;20021;-80
2021/04/27 00:56:51;;;;;;;12.82;10.32;;;256.50;2252.80;;;;;;5053666;28;20391;-81
2021/04/27 00:59:17;;;;;;;15.05;11.18;;;256.50;2252.80;;;;;;5054604;28;20480;-79
2021/04/27 01:01:44;;;;;;;12.70;9.52;;;256.50;2252.80;;;;;;5053342;28;20033;-79
2021/04/27 01:04:10;;;;;;;12.18;8.63;;;256.40;2252.80;;;;;;5053476;28;20040;-80
2021/04/27 01:06:36;;;;;;;16.35;10.55;;;256.40;2252.80;;;;;;5052490;28;20476;-80
2021/04/27 01:09:15;;;;;;;13.68;9.90;;;256.40;2252.80;;;;;;5069899;28;20052;-80
2021/04/27 01:11:56;;;;;;;10.98;8.77;;;256.30;2252.80;;;;;;5054627;28;20078;-80
2021/04/27 01:14:35;;;;;;;11.30;9.38;;;256.40;2252.80;;;;;;5059774;28;20037;-80
2021/04/27 01:17:14;;;;;;;14.25;10.40;;;256.40;2252.80;;;;;;5053380;28;20040;-79
2021/04/27 01:19:55;;;;;;;16.20;11.18;;;256.40;2252.80;;;;;;5054204;28;20025;-79
2021/04/27 01:22:31;;;;;;;14.82;11.18;;;256.40;2252.80;;;;;;5054311;28;20483;-79
2021/04/27 01:25:03;;;;;;;13.05;10.20;;;256.50;2252.80;;;;;;5054158;28;20476;-79
2021/04/27 01:27:31;;;;;;;17.35;10.07;;;256.50;2252.80;;;;;;5052789;28;20033;-79
2021/04/27 01:29:59;;;;;;;17.33;10.52;;;256.50;2252.80;;;;;;5053234;28;20021;-80
2021/04/27 01:32:26;;;;;;;12.77;9.77;;;256.50;2252.80;;;;;;5053087;28;20098;-80
2021/04/27 01:34:52;;;;;;;12.20;9.90;;;256.50;2252.80;;;;;;5061802;28;20029;-80
2021/04/27 01:37:18;;;;;;;12.75;11.05;;;256.50;2252.80;;;;;;5053959;28;20479;-80
2021/04/27 01:39:45;;;;;;;16.15;11.63;;;256.50;2252.80;;;;;;5052623;28;20032;-80
2021/04/27 01:42:11;;;;;;;15.05;10.63;;;256.50;2252.80;;;;;;5053500;28;20043;-80
2021/04/27 01:44:41;;;;;;;17.80;12.23;;;256.50;2252.80;;;;;;5052810;28;20095;-79
2021/04/27 01:47:09;;;;;;;13.50;10.32;;;256.50;2252.80;;;;;;5052528;28;20119;-81
2021/04/27 01:49:34;;;;;;;15.35;10.70;;;256.50;2252.80;;;;;;5052447;28;20023;-79
2021/04/27 01:52:00;;;;;;;14.43;10.63;;;256.50;2252.80;;;;;;5053594;28;20029;-80
2021/04/27 01:54:28;;;;;;;14.48;10.30;;;256.60;2252.80;;;;;;5051369;28;20063;-80
2021/04/27 01:56:55;;;;;;;14.70;10.38;;;256.60;2252.80;;;;;;5051956;28;20037;-79
2021/04/27 01:59:21;;;;;;;16.52;11.63;;;256.60;2252.80;;;;;;5051969;28;20028;-80
2021/04/27 02:01:47;;;;;;;12.98;10.93;;;256.60;2252.80;;;;;;5043529;28;20037;-79
2021/04/27 02:04:23;;;;;;;13.43;10.18;;;256.70;2252.80;;;;;;5034700;28;20022;-79
2021/04/27 02:06:50;;;;;;;;;;;256.70;2252.80;;;;;;5053628;28;20025;-79
2021/04/27 02:09:16;;;;;;;15.65;11.50;;;256.70;2252.80;;;;;;5052204;28;19991;-79
2021/04/27 02:11:49;;;;;;;15.48;11.73;;;256.70;2252.80;;;;;;5053166;28;20036;-80
2021/04/27 02:14:16;;;;;;;16.17;11.73;;;256.70;2252.80;;;;;;5053265;28;20139;-80
2021/04/27 02:17:00;;;;;;;14.05;10.45;;;256.70;2252.80;;;;;;5053062;28;20028;-80
2021/04/27 02:19:29;;;;;;;16.23;10.10;;;256.70;2252.80;;;;;;5057211;28;20100;-79
2021/04/27 02:21:59;;;;;;;13.40;10.52;;;256.70;2252.80;;;;;;5078886;28;20416;-79
2021/04/27 02:24:26;;;;;;;14.18;11.30;;;256.70;2252.80;;;;;;5053201;28;20707;-80
2021/04/27 02:26:52;;;;;;;17.23;12.43;;;256.70;2252.80;;;;;;5055288;28;20947;-79
2021/04/27 02:29:20;;;;;;;15.02;12.20;;;256.70;2252.80;;;;;;5055329;28;20111;-79
2021/04/27 02:31:46;;;;;;;14.40;11.48;;;256.80;2252.80;;;;;;5051511;28;20852;-79
2021/04/27 02:34:12;;;;;;;12.98;10.95;;;256.70;2252.80;;;;;;5056022;28;20028;-79
2021/04/27 02:36:40;;;;;;;13.15;10.68;;;256.80;2252.80;;;;;;5050247;28;20033;-79
2021/04/27 02:39:08;;;;;;;16.10;11.05;;;256.80;2252.80;;;;;;5050531;28;20124;-80
2021/04/27 02:41:34;;;;;;;17.35;11.60;;;256.80;2252.80;;;;;;5064386;28;20037;-80
2021/04/27 02:44:01;;;;;;;17.48;11.85;;;256.80;2252.80;;;;;;5051640;28;20028;-80
2021/04/27 02:46:28;;;;;;;18.25;11.30;;;256.80;2252.80;;;;;;5051488;28;20111;-80
2021/04/27 02:48:54;;;;;;;18.88;13.65;;;256.70;2252.80;;;;;;5052503;28;20035;-79
2021/04/27 02:51:19;;;;;;;17.65;13.00;;;256.70;2252.80;;;;;;5051271;28;20028;-79
2021/04/27 02:53:45;;;;;;;15.85;12.75;;;256.70;2252.80;;;;;;5052259;28;20029;-79
2021/04/27 02:56:11;;;;;;;15.88;12.30;;;256.70;2252.80;;;;;;5052246;28;20029;-79
2021/04/27 02:58:36;;;;;;;16.13;12.35;;;256.70;2252.80;;;;;;5052561;28;20025;-79
2021/04/27 03:01:02;;;;;;;15.85;12.93;;;256.70;2252.80;;;;;;5040726;28;20416;-79
2021/04/27 03:03:28;;;;;;;16.60;13.02;;;256.70;2252.80;;;;;;5048050;28;20108;-79
2021/04/27 03:05:54;;;;;;;17.23;13.43;;;256.70;2252.80;;;;;;5052329;28;20426;-79
2021/04/27 03:08:20;;;;;;;17.38;14.07;;;256.60;2252.80;;;;;;5050878;28;20025;-79
2021/04/27 03:10:46;;;;;;;17.33;13.20;;;256.70;2252.80;;;;;;5050851;28;20029;-79
2021/04/27 03:13:12;;;;;;;19.90;13.65;;;256.70;2252.80;;;;;;5051935;28;20103;-78
2021/04/27 03:15:37;;;;;;;18.13;13.70;;;256.70;2252.80;;;;;;5063447;28;20062;-78
2021/04/27 03:18:03;;;;;;;16.92;12.95;;;256.60;2252.80;;;;;;5059224;28;20039;-78
2021/04/27 03:20:29;;;;;;;20.88;14.35;;;256.70;2252.80;;;;;;5059283;28;20045;-78
2021/04/27 03:22:55;;;;;;;20.67;15.07;;;256.70;2252.80;;;;;;5062992;28;20533;-78
2021/04/27 03:25:21;;;;;;;20.38;15.25;;;256.60;2252.80;;;;;;5051025;28;20103;-77
2021/04/27 03:27:47;;;;;;;21.17;14.98;;;256.60;2252.80;;;;;;5050817;28;20032;-78
2021/04/27 03:30:13;;;;;;;24.58;15.73;;;256.70;2252.80;;;;;;5051911;28;20025;-77
2021/04/27 03:32:40;;;;;;;22.30;15.10;;;256.50;2252.80;;;;;;5064569;28;20029;-77
2021/04/27 03:35:09;;;;;;;19.63;14.68;;;256.60;2252.80;;;;;;5050734;28;20021;-77
2021/04/27 03:37:35;;;;;;;19.42;15.65;;;256.70;2252.80;;;;;;5050787;28;20741;-77
2021/04/27 03:40:02;;;;;;;21.08;15.73;;;256.50;2252.80;;;;;;5051560;28;20036;-78
2021/04/27 03:42:27;;;;;;;21.98;15.98;;;256.50;2252.80;;;;;;5050722;28;20764;-78
2021/04/27 03:44:53;;;;;;;23.13;16.38;;;256.50;2252.80;;;;;;5040622;28;20049;-79
2021/04/27 03:47:19;;;;;;;28.85;18.55;;;256.50;2252.80;;;;;;5035578;28;20036;-77
2021/04/27 03:49:45;;;;;;;34.42;23.40;;;256.50;2252.80;;;;;;5051788;28;20029;-79
2021/04/27 03:52:10;;;;;;;31.50;19.90;;;256.60;2252.80;;;;;;5049762;28;20037;-79
2021/04/27 03:54:36;;;;;;;27.00;19.20;;;256.60;2252.80;;;;;;5052165;28;20094;-78
2021/04/27 03:57:02;;;;;;;23.83;16.42;;;256.50;2252.80;;;;;;5053245;28;20032;-78
2021/04/27 03:59:29;;;;;;;24.98;16.38;;;256.60;2252.80;;;;;;5051064;28;20060;-79
2021/04/27 04:01:54;;;;;;;20.27;16.05;;;256.60;2252.80;;;;;;5051372;28;20048;-79
2021/04/27 04:04:20;;;;;;;19.75;16.08;;;256.60;2252.80;;;;;;5052360;28;20379;-79
2021/04/27 04:06:46;;;;;;;19.70;15.65;;;256.70;2252.80;;;;;;5053257;28;20025;-79
2021/04/27 04:09:12;;;;;;;19.27;14.32;;;256.60;2252.80;;;;;;5052459;28;20482;-80
2021/04/27 04:11:38;;;;;;;15.38;13.18;;;256.60;2252.80;;;;;;5043505;28;20045;-79
2021/04/27 04:14:04;;;;;;;18.77;13.48;;;256.70;2252.80;;;;;;5045032;28;20024;-79
2021/04/27 04:16:30;;;;;;;17.08;13.95;;;256.80;2252.80;;;;;;5040127;28;20029;-79
2021/04/27 04:18:56;;;;;;;21.63;13.52;;;256.80;2252.80;;;;;;5054469;28;20110;-79
2021/04/27 04:21:25;;;;;;;17.98;14.10;;;256.80;2252.80;;;;;;5041207;28;20440;-79
2021/04/27 04:23:52;;;;;;;23.13;15.13;;;256.80;2252.80;;;;;;5054100;28;20116;-79
2021/04/27 04:26:18;;;;;;;19.23;14.10;;;256.80;2252.80;;;;;;5054547;28;20052;-80
2021/04/27 04:28:44;;;;;;;18.95;15.40;;;256.80;2252.80;;;;;;5055875;28;20391;-81
2021/04/27 04:31:10;;;;;;;23.13;17.13;;;256.80;2252.80;;;;;;5053590;28;20041;-80
2021/04/27 04:33:36;;;;;;;18.95;15.00;;;256.70;2252.80;;;;;;5053125;28;20510;-80
2021/04/27 04:36:02;;;;;;;21.92;15.52;;;256.80;2252.80;;;;;;5053624;28;20027;-78
2021/04/27 04:38:28;;;;;;;20.70;15.10;;;256.80;2252.80;;;;;;5058206;28;20123;-79
2021/04/27 04:40:54;;;;;;;20.10;15.40;;;256.80;2252.80;;;;;;5070044;28;20380;-79
2021/04/27 04:43:20;;;;;;;18.10;14.13;;;256.80;2252.80;;;;;;5055136;28;20399;-79
2021/04/27 04:45:46;;;;;;;17.52;15.27;;;256.80;2252.80;;;;;;5053669;28;20117;-80
2021/04/27 04:48:12;;;;;;;21.65;16.05;;;256.90;2252.80;;;;;;5059885;28;20025;-78
2021/04/27 04:50:40;;;;;;;20.52;15.15;;;256.80;2252.80;;;;;;5054650;28;20078;-77
2021/04/27 04:53:06;;;;;;;23.10;16.15;;;256.80;2252.80;;;;;;5055119;28;20096;-78
2021/04/27 04:55:33;;;;;;;24.65;14.88;;;256.90;2252.80;;;;;;5053462;28;20128;-78
2021/04/27 04:57:59;;;;;;;17.50;13.30;;;281.60;2278.40;;;;;;5054446;28;20103;-78
2021/04/27 05:00:25;;;;;;;22.42;15.57;;;281.60;2278.40;;;;;;5053949;28;20040;-78
2021/04/27 05:02:51;;;;;;;19.08;13.55;;;281.60;2278.40;;;;;;5053546;28;20029;-79
2021/04/27 05:05:17;;;;;;;22.77;13.85;;;281.70;2278.40;;;;;;5060273;28;20021;-78
2021/04/27 05:07:46;;;;;;;18.17;15.35;;;281.70;2278.40;;;;;;5048082;28;20400;-80
2021/04/27 05:10:14;;;;;;;18.30;13.68;;;281.70;2278.40;;;;;;5052934;28;20464;-80
2021/04/27 05:12:40;;;;;;;18.17;13.90;;;281.70;2278.40;;;;;;5055960;28;20040;-80
2021/04/27 05:15:07;;;;;;;17.77;13.73;;;281.70;2278.40;;;;;;5051698;28;20025;-80
2021/04/27 05:17:34;;;;;;;17.10;12.63;;;281.70;2278.40;;;;;;5054370;28;20108;-80
2021/04/27 05:20:00;;;;;;;18.90;14.63;;;281.80;2278.40;;;;;;5056572;28;20028;-79
2021/04/27 05:22:27;;;;;;;20.52;14.80;;;281.70;2278.40;;;;;;5052525;28;20383;-79
2021/04/27 05:24:54;;;;;;;19.55;14.23;;;281.80;2278.40;;;;;;5057686;28;20031;-79
2021/04/27 05:27:21;;;;;;;20.38;15.25;;;281.80;2278.40;;;;;;5053463;28;20029;-78
2021/04/27 05:29:47;;;;;;;19.52;15.45;;;281.80;2278.40;;;;;;5054017;28;20045;-79
2021/04/27 05:32:13;;;;;;;21.58;16.85;;;281.90;2278.40;;;;;;5051246;28;20526;-79
2021/04/27 05:34:39;;;;;;;20.50;15.90;;;281.90;2278.40;;;;;;5052539;28;20037;-80
2021/04/27 05:37:05;;;;;;;23.08;16.45;;;281.90;2278.40;;;;;;5052821;28;20116;-80
2021/04/27 05:39:32;;;;;;;18.65;14.73;;;282.00;2278.40;;;;;;5058060;28;20476;-80
2021/04/27 05:41:58;;;;;;;19.17;14.32;;;282.00;2278.40;;;;;;5046058;28;20499;-80
2021/04/27 05:44:24;;;;;;;18.75;14.00;;;282.00;2278.40;;;;;;5054356;28;20112;-80
2021/04/27 05:46:50;;;;;;;18.88;14.52;;;282.00;2278.40;;;;;;5042864;28;20124;-79
2021/04/27 05:49:16;;;;;;;19.73;14.48;;;282.10;2278.40;;;;;;5052099;28;20021;-80
2021/04/27 05:51:42;;;;;;;22.58;16.48;;;282.10;2278.40;;;;;;5052955;28;20032;-78
2021/04/27 05:54:08;;;;;;;20.88;15.75;;;282.10;2278.40;;;;;;5051358;28;20032;-79
2021/04/27 05:56:35;;;;;;;24.10;15.90;;;282.10;2278.40;;;;;;5054583;28;20051;-78
2021/04/27 05:59:00;;;;;;;16.70;13.02;;;282.10;2278.40;;;;;;5053153;28;20029;-78
2021/04/27 06:01:26;;;;;;;23.90;18.02;;;282.20;2278.40;;;;;;5052926;28;20369;-78
2021/04/27 06:03:52;;;;;;;45.65;28.70;;;282.20;2278.40;;;;;;5053277;28;20738;-77
2021/04/27 06:06:18;;;;;;;39.47;24.98;;;282.20;2278.40;;;;;;5054330;28;20047;-79
2021/04/27 06:08:43;;;;;;;39.67;24.63;;;282.20;2278.40;;;;;;5056961;28;20025;-79
2021/04/27 06:11:09;;;;;;;33.08;21.20;;;282.10;2278.40;;;;;;5046152;28;20380;-78
2021/04/27 06:13:35;;;;;;;26.08;18.23;;;282.10;2278.40;;;;;;5068426;28;20120;-78
2021/04/27 06:16:02;;;;;;;21.60;16.70;;;282.20;2278.40;;;;;;5052381;28;20025;-78
2021/04/27 06:18:28;;;;;;;22.50;17.38;;;282.30;2278.40;;;;;;5050589;28;20040;-78
2021/04/27 06:20:54;;;;;;;20.33;14.73;;;282.30;2278.40;;;;;;5052410;28;20021;-78
2021/04/27 06:23:20;;;;;;;23.10;15.75;;;282.30;2278.40;;;;;;5052768;28;20024;-78
2021/04/27 06:25:45;;;;;;;17.20;13.82;;;282.40;2278.40;;;;;;5052523;28;20024;-78
2021/04/27 06:28:13;;;;;;;23.52;15.95;;;282.50;2278.40;;;;;;5052158;28;20091;-77
2021/04/27 06:30:39;;;;;;;25.02;15.77;;;282.50;2278.40;;;;;;5051278;28;20130;-78
2021/04/27 06:33:05;;;;;;;21.67;14.65;;;282.40;2278.40;;;;;;5050235;28;20068;-77
2021/04/27 06:35:31;;;;;;;24.42;16.70;;;282.20;2278.40;;;;;;5052758;28;20028;-77
2021/04/27 06:37:57;;;;;;;25.45;15.32;;;282.20;2278.40;;;;;;5047849;28;20027;-77
2021/04/27 06:40:23;;;;;;;16.63;12.82;;;282.20;2278.40;;;;;;5050368;28;20470;-77
2021/04/27 06:42:49;;;;;;;23.55;14.18;;;282.10;2278.40;;;;;;5051025;28;20106;-77
2021/04/27 06:45:15;;;;;;;23.70;15.18;;;282.00;2278.40;;;;;;5052395;28;20029;-78
2021/04/27 06:47:41;;;;;;;26.90;15.93;;;282.00;2278.40;;;;;;5052993;28;20037;-77
2021/04/27 06:50:08;;;;;;;26.98;16.13;;;282.00;2278.40;;;;;;5067800;28;20036;-77
2021/04/27 06:52:34;;;;;;;30.85;16.48;;;281.90;2278.40;;;;;;5051718;28;20033;-78
2021/04/27 06:55:00;;;;;;;23.33;15.45;;;281.90;2278.40;;;;;;5049801;28;20091;-78
2021/04/27 06:57:26;;;;;;;24.00;16.15;;;281.80;2278.40;;;;;;5067762;28;20040;-78
2021/04/27 06:59:52;;;;;;;26.55;16.35;;;281.80;2278.40;;;;;;5052461;28;20021;-78
2021/04/27 07:02:19;;;;;;;23.50;16.83;;;282.00;2278.40;;;;;;5051020;28;20490;-78
2021/04/27 07:04:45;;;;;;;25.52;18.00;;;282.10;2278.40;;;;;;5057232;28;20025;-78
2021/04/27 07:07:10;;;;;;;22.80;15.32;;;282.20;2278.40;;;;;;5050735;28;20090;-79
2021/04/27 07:09:37;;;;;;;31.85;22.38;;;282.20;2278.40;;;;;;5053466;28;20025;-78
2021/04/27 07:12:03;;;;;;;32.78;20.92;;;282.20;2278.40;;;;;;5050933;28;20048;-78
2021/04/27 07:14:29;;;;;;;27.90;19.80;;;282.20;2278.40;;;;;;5050638;28;20044;-77
2021/04/27 07:16:55;;;;;;;29.10;21.98;;;282.20;2278.40;;;;;;5043153;28;20037;-78
2021/04/27 07:19:21;;;;;;;25.42;18.42;;;282.10;2278.40;;;;;;5053880;28;20029;-78
2021/04/27 07:21:47;;;;;;;23.33;16.60;;;282.00;2278.40;;;;;;5051387;28;20429;-77
2021/04/27 07:24:12;;;;;;;31.55;19.40;;;282.00;2278.40;;;;;;5051325;28;20025;-77
2021/04/27 07:26:45;;;;;;;32.72;21.88;;;282.00;2278.40;;;;;;5051651;28;20021;-77
2021/04/27 07:29:11;;;;;;;39.78;24.20;;;282.00;2278.40;;;;;;5052482;28;20048;-77
2021/04/27 07:31:38;;;;;;;19.35;15.10;;;282.10;2278.40;;;;;;5052144;28;20141;-76
2021/04/27 07:34:05;;;;;;;23.92;16.63;;;281.90;2278.40;;;;;;5051820;28;20095;-77
2021/04/27 07:36:31;;;;;;;22.35;16.67;;;281.90;2278.40;;;;;;5066253;28;20037;-76
2021/04/27 07:38:56;;;;;;;21.02;16.70;;;281.90;2278.40;;;;;;5051559;28;20032;-77
2021/04/27 07:41:22;;;;;;;27.13;18.27;;;282.00;2278.40;;;;;;5052242;28;20029;-77
2021/04/27 07:43:48;;;;;;;39.60;26.13;;;282.10;2278.40;;;;;;5053586;28;20017;-77
2021/04/27 07:46:14;;;;;;;29.95;19.30;;;282.10;2278.40;;;;;;5051152;28;20053;-77
2021/04/27 07:48:40;;;;;;;24.42;17.25;;;282.20;2278.40;;;;;;5051330;28;20033;-77
2021/04/27 07:51:06;;;;;;;21.08;15.32;;;282.10;2278.40;;;;;;5054763;28;20021;-77
2021/04/27 07:53:32;;;;;;;23.42;15.25;;;282.10;2278.40;;;;;;5054277;28;20025;-77
2021/04/27 07:55:58;;;;;;;18.55;14.77;;;282.10;2278.40;;;;;;5054382;28;20029;-77
2021/04/27 07:58:23;;;;;;;21.80;15.95;;;282.20;2278.40;;;;;;5055348;28;20029;-77
2021/04/27 08:00:49;;;;;;;22.30;16.50;;;282.10;2278.40;;;;;;5056801;28;20095;-77
2021/04/27 08:03:15;;;;;;;42.15;25.13;;;282.20;2278.40;;;;;;5055047;28;20442;-77
2021/04/27 08:05:41;;;;;;;41.03;28.88;;;282.30;2278.40;;;;;;5062722;28;20025;-77
2021/04/27 08:08:07;;;;;;;34.78;25.75;;;282.40;2278.40;;;;;;5054912;28;20765;-78
2021/04/27 08:10:33;;;;;;;23.67;16.83;;;307.20;2304.00;;;;;;5059517;28;20100;-77
2021/04/27 08:12:59;;;;;;;24.80;18.00;;;307.20;2304.00;;;;;;5061479;28;20028;-78
2021/04/27 08:15:28;;;;;;;20.98;15.95;;;307.30;2304.00;;;;;;5074267;28;20119;-77
2021/04/27 08:17:56;;;;;;;24.08;17.50;;;307.30;2304.00;;;;;;5074256;28;20049;-77
2021/04/27 08:20:22;;;;;;;26.20;17.40;;;307.40;2304.00;;;;;;5057258;28;20025;-78
2021/04/27 08:22:48;;;;;;;23.00;17.33;;;307.50;2304.00;;;;;;5055308;28;20025;-78
2021/04/27 08:25:15;;;;;;;21.63;15.38;;;307.60;2304.00;;;;;;5054556;28;20159;-78
2021/04/27 08:27:42;;;;;;;24.85;18.23;;;307.60;2304.00;;;;;;5053985;28;20047;-78
2021/04/27 08:30:09;;;;;;;25.00;17.67;;;307.70;2304.00;;;;;;5051615;28;20031;-79
2021/04/27 08:32:35;;;;;;;25.95;19.02;;;307.80;2304.00;;;;;;5069520;28;20044;-78
2021/04/27 08:35:03;;;;;;;26.40;17.58;;;308.00;2304.00;;;;;;5055316;28;20525;-78
2021/04/27 08:37:30;;;;;;;30.15;18.42;;;308.10;2304.00;;;;;;5071828;28;20033;-78
2021/04/27 08:39:56;;;;;;;21.02;15.02;;;308.00;2304.00;;;;;;5056220;28;20086;-79
2021/04/27 08:42:23;;;;;;;22.98;17.08;;;308.00;2304.00;;;;;;5052184;28;20032;-77
2021/04/27 08:44:48;;;;;;;18.55;14.65;;;308.00;2304.00;;;;;;5068685;28;20032;-78
2021/04/27 08:47:14;;;;;;;19.02;15.27;;;308.00;2304.00;;;;;;5069533;28;20025;-77
2021/04/27 08:49:40;;;;;;;18.33;15.13;;;308.00;2304.00;;;;;;5044512;28;20067;-77
2021/04/27 08:52:06;;;;;;;26.33;19.45;;;308.10;2304.00;;;;;;5054179;28;20064;-78
2021/04/27 08:54:37;;;;;;;18.73;14.90;;;332.80;2329.60;;;;;;5057202;28;20448;-78
2021/04/27 08:57:06;;;;;;;18.67;13.85;;;308.10;2304.00;;;;;;5052666;28;20021;-78
2021/04/27 08:59:32;;;;;;;17.38;15.40;;;332.80;2329.60;;;;;;5045097;28;20025;-78
2021/04/27 09:01:58;;;;;;;23.08;16.65;;;332.80;2329.60;;;;;;5070010;28;20052;-78
2021/04/27 09:04:43;;;;;;;25.48;19.08;;;332.90;2329.60;;;;;;5052194;28;20052;-78
2021/04/27 09:07:16;;;;;;;21.10;17.48;;;333.10;2329.60;;;;;;5053098;28;20497;-77
2021/04/27 09:09:47;;;;;;;22.75;18.15;;;333.10;2329.60;;;;;;5054861;28;20024;-79
2021/04/27 09:12:13;;;;;;;23.27;16.58;;;333.00;2329.60;;;;;;5053158;28;20017;-78
2021/04/27 09:14:41;;;;;;;23.77;16.98;;;333.10;2329.60;;;;;;5052817;28;20039;-78
2021/04/27 09:17:10;;;;;;;23.58;16.35;;;333.20;2329.60;;;;;;5069424;28;20071;-79
2021/04/27 09:19:47;;;;;;;24.98;19.25;;;333.40;2329.60;;;;;;5060005;28;20413;-78
2021/04/27 09:22:33;;;;;;;23.88;18.45;;;333.30;2329.60;;;;;;5055698;28;20029;-79
2021/04/27 09:25:06;;;;;;;25.73;18.65;;;333.10;2329.60;;;;;;5051258;28;20851;-77
2021/04/27 09:27:43;;;;;;;24.25;19.00;;;333.00;2329.60;;;;;;5053279;28;20501;-77
2021/04/27 09:30:28;;;;;;;26.90;19.20;;;333.00;2329.60;;;;;;5052155;28;20021;-78
2021/04/27 09:32:55;;;;;;;27.57;20.43;;;332.90;2329.60;;;;;;5064855;28;20128;-77
2021/04/27 09:35:28;;;;;;;29.45;21.70;;;332.80;2329.60;;;;;;5053879;28;20300;-77
2021/04/27 09:38:09;;;;;;;26.63;20.42;;;332.80;2329.60;;;;;;5055931;28;20120;-77
2021/04/27 09:41:04;;;;;;;27.10;20.77;;;332.80;2329.60;;;;;;5051893;28;20021;-78
2021/04/27 09:43:34;;;;;;;28.88;21.00;;;333.00;2329.60;;;;;;5052832;28;20064;-78
2021/04/27 09:46:03;;;;;;;28.70;20.23;;;333.00;2329.60;;;;;;5052314;28;20060;-78
2021/04/27 09:48:33;;;;;;;37.55;23.63;;;333.00;2329.60;;;;;;5053062;28;20033;-78
2021/04/27 09:51:30;;;;;;;31.02;24.90;;;333.10;2329.60;;;;;;5051135;28;20499;-78
2021/04/27 09:53:57;;;;;;;25.00;18.55;;;333.00;2329.60;;;;;;5047862;28;20483;-78
2021/04/27 09:56:42;;;;;;;22.00;15.35;;;332.80;2329.60;;;;;;5047444;28;20501;-77
2021/04/27 09:59:11;;;;;;;20.63;15.30;;;308.10;2304.00;;;;;;5053387;28;20032;-80
2021/04/27 10:01:37;;;;;;;22.08;15.55;;;332.80;2329.60;;;;;;5053068;28;20029;-79
2021/04/27 10:04:04;;;;;;;21.73;15.85;;;332.80;2329.60;;;;;;5052332;28;20017;-78
2021/04/27 10:06:30;;;;;;;14.75;12.18;;;308.10;2278.40;;;;;;5053135;28;20434;-78
2021/04/27 10:08:57;;;;;;;31.13;19.35;;;308.00;2227.20;;;;;;5053057;28;20016;-79
2021/04/27 10:11:26;;;;;;;55.22;31.45;;;308.00;2201.60;;;;;;5054189;28;20044;-78
2021/04/27 10:13:53;;;;;;;23.83;15.45;;;307.90;2252.80;;;;;;5053460;28;20033;-78
2021/04/27 10:16:19;;;;;;;20.00;14.85;;;307.90;2278.40;;;;;;5051560;28;20025;-79
2021/04/27 10:18:46;;;;;;;22.40;16.52;;;307.90;2304.00;;;;;;5068943;28;20037;-79
2021/04/27 10:21:12;;;;;;;20.95;14.93;;;308.00;2304.00;;;;;;5051018;28;20033;-78
2021/04/27 10:23:46;;;;;;;18.38;14.35;;;308.10;2304.00;;;;;;5053923;28;20021;-80
2021/04/27 10:26:12;;;;;;;20.00;14.85;;;308.00;2304.00;;;;;;5068808;28;20036;-79
2021/04/27 10:29:17;;;;;;;17.75;13.68;;;308.10;2304.00;;;;;;5054962;28;20025;-77
2021/04/27 10:31:43;;;;;;;18.67;12.25;;;332.80;2304.00;;;;;;5059294;28;20052;-78
2021/04/27 10:34:14;;;;;;;24.10;14.45;;;332.80;2304.00;;;;;;5051083;28;20108;-78
2021/04/27 10:36:49;;;;;;;20.90;12.40;;;332.80;2304.00;;;;;;5051260;28;20036;-78
2021/04/27 10:39:35;;;;;;;14.02;9.77;;;332.90;2252.80;;;;;;5049935;28;20025;-78
2021/04/27 10:42:21;;;;;;;15.05;11.80;;;332.80;2252.80;;;;;;5050617;28;20115;-77
2021/04/27 10:45:07;;;;;;;34.72;21.15;;;332.90;2304.00;;;;;;5066848;28;20108;-78
2021/04/27 10:47:42;;;;;;;22.50;14.00;;;333.00;2329.60;;;;;;5051344;28;20522;-78
2021/04/27 10:50:24;;;;;;;14.35;12.18;;;333.10;2329.60;;;;;;5061036;28;20121;-78
2021/04/27 10:52:50;;;;;;;21.48;13.02;;;333.10;2304.00;;;;;;5049909;28;20024;-78
2021/04/27 10:55:26;;;;;;;18.88;14.65;;;333.10;2329.60;;;;;;5050923;28;20037;-79
2021/04/27 10:57:53;;;;;;;13.82;9.75;;;333.20;2329.60;;;;;;5052081;28;20445;-78
2021/04/27 11:00:41;;;;;;;12.10;9.88;;;333.30;2227.20;;;;;;5047550;28;20065;-78
2021/04/27 11:03:25;;;;;;;16.50;10.50;;;333.30;2176.00;;;;;;5049179;28;20033;-79
2021/04/27 11:05:59;;;;;;;17.80;11.85;;;333.30;2201.60;;;;;;5048344;28;20472;-79
2021/04/27 11:08:48;;;;;;;15.98;11.50;;;333.20;2176.00;;;;;;5052929;28;20060;-79
2021/04/27 11:11:28;;;;;;;15.00;10.57;;;333.00;2227.20;;;;;;5051116;28;20025;-79
2021/04/27 11:14:16;;;;;;;12.32;9.80;;;333.00;2252.80;;;;;;5060241;28;20120;-79
2021/04/27 11:16:43;;;;;;;15.55;10.45;;;333.00;2176.00;;;;;;5051120;28;20025;-78
2021/04/27 11:19:18;;;;;;;13.00;9.07;;;332.90;2227.20;;;;;;5050236;28;20029;-78
2021/04/27 11:21:48;;;;;;;15.40;10.88;;;333.10;2201.60;;;;;;5050355;28;20025;-78
2021/04/27 11:24:39;;;;;;;16.67;12.02;;;333.20;2176.00;;;;;;5051981;28;20021;-78
2021/04/27 11:27:06;;;;;;;17.40;10.60;;;333.40;2201.60;;;;;;5051678;28;20092;-77
2021/04/27 11:29:35;;;;;;;12.02;9.55;;;333.50;2150.40;;;;;;5052803;28;20017;-78
2021/04/27 11:32:09;;;;;;;11.95;9.30;;;333.70;2124.80;;;;;;5049135;28;20091;-79
2021/04/27 11:34:54;;;;;;;11.00;8.45;;;358.40;2073.60;;;;;;5067062;28;20036;-79
2021/04/27 11:37:50;;;;;;;11.10;8.27;;;358.40;2048.00;;;;;;5061625;28;20037;-79
2021/04/27 11:40:38;;;;;;;11.07;8.73;;;358.60;1971.20;;;;;;4965297;28;20163;-78
2021/04/27 11:43:11;;;;;;;11.80;9.25;;;358.80;1996.80;;;;;;4976803;28;20320;-79
2021/04/27 11:45:39;;;;;;;13.18;9.80;;;358.90;1996.80;;;;;;4969204;28;20038;-78
2021/04/27 11:48:10;;;;;;;11.48;8.50;;;359.00;1996.80;;;;;;4962329;28;20438;-78
2021/04/27 11:50:36;;;;;;;9.57;7.40;;;359.10;1971.20;;;;;;4978517;28;20080;-78
2021/04/27 11:53:15;;;;;;;10.30;8.43;;;359.10;1945.60;;;;;;4985029;28;20035;-79
2021/04/27 11:55:55;;;;;;;8.13;6.47;;;384.00;1945.60;;;;;;4985161;28;20034;-78
2021/04/27 11:58:36;;;;;;;10.63;7.80;;;384.30;1894.40;;;;;;4986972;28;20117;-78
2021/04/27 12:01:07;;;;;;;11.32;8.43;;;409.60;1817.60;;;;;;4968419;28;20413;-80
2021/04/27 12:03:45;;;;;;;9.25;6.75;;;435.20;1715.20;;;;;;4968461;28;20046;-79
2021/04/27 12:06:18;;;;;;;10.65;7.00;;;435.70;1638.40;;;;;;4968467;28;20053;-79
2021/04/27 12:08:47;;;;;;;8.35;6.43;;;435.40;1612.80;;;;;;4968999;28;20113;-79